Time;durP1;ratioP1;P1;durP2;ratioP2;P2;SDS_P1;SDS_P2;PMS_P1;PMS_P2;Temp;Humidity;BMP_temperature;BMP_pressure;BME280_temperature;BME280_humidity;BME280_pressure;Samples;Min_cycle;Max_cycle;Signal;HPM_P1;HPM_P2
2022/09/25 00:00:47;;;;;;;4.67;3.60;;;21.20;57.50;;;;;;4980440;28;20938;-77
2022/09/25 00:03:16;;;;;;;9.23;3.53;;;21.20;58.20;;;;;;4976845;28;20421;-77
2022/09/25 00:05:44;;;;;;;5.70;4.07;;;21.20;57.40;;;;;;4974449;28;20428;-77
2022/09/25 00:08:12;;;;;;;5.73;3.50;;;21.20;57.60;;;;;;4974567;28;20453;-76
2022/09/25 00:10:41;;;;;;;5.13;3.77;;;21.20;57.80;;;;;;4976904;28;20489;-78
2022/09/25 00:13:09;;;;;;;4.60;3.70;;;21.20;57.60;;;;;;4976268;28;20442;-78
2022/09/25 00:15:38;;;;;;;4.97;4.47;;;21.20;57.60;;;;;;4989134;28;20427;-77
2022/09/25 00:18:06;;;;;;;6.33;4.03;;;21.20;57.40;;;;;;4992031;28;20494;-78
2022/09/25 00:20:33;;;;;;;3.90;3.00;;;21.20;57.70;;;;;;4995220;28;20463;-78
2022/09/25 00:23:01;;;;;;;6.73;4.27;;;21.20;57.60;;;;;;4995116;28;20461;-78
2022/09/25 00:25:28;;;;;;;4.70;3.50;;;21.20;57.60;;;;;;4995534;28;20967;-78
2022/09/25 00:27:56;;;;;;;3.93;3.50;;;21.20;57.60;;;;;;4982325;28;20454;-78
2022/09/25 00:30:24;;;;;;;4.03;3.33;;;21.10;57.80;;;;;;4990764;28;20480;-77
2022/09/25 00:32:54;;;;;;;7.17;3.63;;;21.10;57.60;;;;;;4991850;28;20940;-77
2022/09/25 00:35:22;;;;;;;5.50;3.77;;;21.20;57.90;;;;;;4991759;28;20454;-78
2022/09/25 00:37:50;;;;;;;6.43;3.33;;;21.20;57.70;;;;;;4975592;28;20458;-77
2022/09/25 00:40:18;;;;;;;3.60;3.30;;;21.20;57.80;;;;;;4991414;28;20473;-77
2022/09/25 00:42:46;;;;;;;4.30;3.33;;;21.20;57.60;;;;;;4980538;28;20468;-76
2022/09/25 00:45:16;;;;;;;3.67;3.37;;;21.10;57.80;;;;;;4992566;28;20423;-75
2022/09/25 00:47:48;;;;;;;3.00;2.77;;;21.10;57.80;;;;;;4993594;28;20418;-76
2022/09/25 00:50:34;;;;;;;5.53;3.60;;;21.10;57.90;;;;;;4992547;28;20468;-76
2022/09/25 00:53:05;;;;;;;12.07;4.13;;;21.10;57.70;;;;;;4979016;28;20446;-76
2022/09/25 00:55:33;;;;;;;5.00;3.37;;;21.10;57.90;;;;;;4985771;28;20981;-76
2022/09/25 00:58:01;;;;;;;5.60;3.90;;;21.10;57.70;;;;;;4979611;28;20446;-76
2022/09/25 01:00:29;;;;;;;5.40;3.60;;;21.10;57.90;;;;;;4980392;28;20998;-76
2022/09/25 01:02:57;;;;;;;6.80;3.77;;;21.20;57.90;;;;;;4982369;28;20458;-77
2022/09/25 01:05:27;;;;;;;3.83;3.43;;;21.10;57.60;;;;;;4979322;28;20449;-77
2022/09/25 01:07:57;;;;;;;7.77;3.57;;;21.10;57.90;;;;;;4992486;28;20460;-77
2022/09/25 01:10:25;;;;;;;6.63;4.17;;;21.10;57.90;;;;;;4975134;28;20477;-76
2022/09/25 01:12:53;;;;;;;5.70;4.60;;;21.10;58.00;;;;;;4973352;28;20465;-76
2022/09/25 01:15:24;;;;;;;5.13;4.07;;;21.10;57.90;;;;;;4992995;28;20441;-76
2022/09/25 01:17:58;;;;;;;9.57;4.30;;;21.10;58.00;;;;;;4992528;28;20445;-76
2022/09/25 01:20:50;;;;;;;5.90;4.43;;;21.10;58.00;;;;;;4975993;28;20482;-77
2022/09/25 01:23:30;;;;;;;7.67;3.87;;;21.10;57.80;;;;;;4983480;28;20446;-76
2022/09/25 01:26:10;;;;;;;5.80;3.97;;;21.10;57.90;;;;;;4988922;28;20441;-76
2022/09/25 01:28:51;;;;;;;5.27;3.97;;;21.00;58.00;;;;;;4992540;28;20504;-76
2022/09/25 01:31:21;;;;;;;4.80;3.53;;;21.00;57.80;;;;;;4984950;28;20458;-77
2022/09/25 01:33:52;;;;;;;4.77;4.23;;;21.00;58.00;;;;;;4973496;28;20425;-77
2022/09/25 01:36:23;;;;;;;5.20;3.70;;;21.00;57.80;;;;;;4973660;28;20427;-76
2022/09/25 01:38:52;;;;;;;4.83;4.30;;;21.00;58.10;;;;;;4983742;28;20450;-76
2022/09/25 01:41:21;;;;;;;4.30;3.90;;;21.00;57.90;;;;;;4991013;28;20477;-76
2022/09/25 01:43:52;;;;;;;3.90;3.50;;;21.00;58.10;;;;;;4992370;28;20487;-76
2022/09/25 01:46:21;;;;;;;5.27;4.20;;;21.00;57.90;;;;;;4972804;28;20508;-76
2022/09/25 01:48:51;;;;;;;3.90;3.60;;;21.00;58.10;;;;;;4973374;28;20421;-76
2022/09/25 01:51:20;;;;;;;4.00;3.70;;;21.00;58.00;;;;;;4973243;28;20468;-77
2022/09/25 01:53:50;;;;;;;5.00;4.30;;;21.00;58.20;;;;;;4975372;28;20453;-76
2022/09/25 01:56:21;;;;;;;5.20;4.27;;;21.00;57.90;;;;;;4991318;28;20440;-76
2022/09/25 01:58:52;;;;;;;6.33;4.53;;;21.00;58.00;;;;;;4980536;28;20454;-77
2022/09/25 02:01:22;;;;;;;6.10;5.00;;;21.00;58.20;;;;;;4976761;28;20490;-76
2022/09/25 02:03:51;;;;;;;5.23;4.50;;;21.00;58.30;;;;;;4973282;28;20489;-77
2022/09/25 02:06:19;;;;;;;5.50;4.63;;;21.00;58.00;;;;;;4991372;28;20461;-76
2022/09/25 02:08:49;;;;;;;7.20;5.07;;;21.00;58.20;;;;;;4982187;28;20442;-77
2022/09/25 02:11:16;;;;;;;6.50;4.97;;;21.00;58.30;;;;;;4987363;28;20502;-76
2022/09/25 02:13:48;;;;;;;5.37;4.33;;;21.00;58.00;;;;;;4987958;28;20508;-77
2022/09/25 02:16:17;;;;;;;4.43;4.13;;;21.00;58.30;;;;;;4974119;28;20442;-77
2022/09/25 02:21:37;;;;;;;4.27;3.87;;;21.00;58.20;;;;;;4976345;28;20565;-77
2022/09/25 02:24:09;;;;;;;4.83;4.30;;;21.00;58.20;;;;;;4994339;28;20815;-77
2022/09/25 02:26:38;;;;;;;5.90;4.80;;;21.00;58.80;;;;;;4995487;28;20429;-77
2022/09/25 02:29:07;;;;;;;4.57;4.10;;;21.00;58.20;;;;;;4980395;28;20449;-77
2022/09/25 02:31:39;;;;;;;5.23;4.73;;;21.00;58.10;;;;;;4994996;28;20465;-77
2022/09/25 02:34:07;;;;;;;5.37;4.80;;;21.00;58.20;;;;;;4997456;28;20441;-77
2022/09/25 02:36:41;;;;;;;6.27;5.03;;;20.90;58.10;;;;;;4992297;28;20450;-78
2022/09/25 02:39:10;;;;;;;5.03;4.53;;;20.90;58.30;;;;;;4989323;28;20453;-77
2022/09/25 02:41:48;;;;;;;5.00;4.43;;;20.90;58.10;;;;;;4996148;28;20460;-77
2022/09/25 02:44:18;;;;;;;8.87;5.40;;;20.80;58.20;;;;;;4986388;28;20417;-77
2022/09/25 02:46:51;;;;;;;6.77;4.90;;;20.80;58.40;;;;;;4987829;28;20516;-77
2022/09/25 02:49:23;;;;;;;6.10;4.63;;;20.90;59.30;;;;;;4985485;28;20501;-77
2022/09/25 02:51:54;;;;;;;6.77;4.23;;;20.90;58.60;;;;;;4996495;28;20414;-77
2022/09/25 02:54:24;;;;;;;5.33;4.67;;;20.90;58.50;;;;;;4995312;28;20876;-77
2022/09/25 02:56:53;;;;;;;5.43;4.50;;;20.90;58.20;;;;;;4993929;28;20461;-77
2022/09/25 02:59:28;;;;;;;6.40;5.50;;;20.90;58.60;;;;;;4996594;28;20449;-77
2022/09/25 03:01:57;;;;;;;5.37;4.37;;;20.90;58.50;;;;;;4990485;28;20469;-77
2022/09/25 03:04:25;;;;;;;5.53;4.83;;;20.90;58.30;;;;;;4993353;28;20441;-77
2022/09/25 03:06:53;;;;;;;5.90;4.53;;;20.90;58.60;;;;;;4976722;28;20446;-77
2022/09/25 03:09:21;;;;;;;5.60;5.00;;;20.90;58.40;;;;;;4987836;28;20453;-77
2022/09/25 03:11:48;;;;;;;4.77;4.37;;;20.90;58.50;;;;;;4994981;28;20480;-77
2022/09/25 03:14:16;;;;;;;4.90;4.40;;;20.90;58.70;;;;;;4986261;28;20441;-78
2022/09/25 03:16:46;;;;;;;6.33;4.50;;;20.90;58.40;;;;;;4995385;28;20441;-77
2022/09/25 03:19:17;;;;;;;6.07;5.10;;;20.90;58.60;;;;;;4993758;28;20449;-77
2022/09/25 03:21:45;;;;;;;6.50;5.00;;;20.90;58.30;;;;;;4995373;28;20465;-77
2022/09/25 03:24:13;;;;;;;6.07;5.00;;;20.90;58.30;;;;;;4986375;28;20458;-77
2022/09/25 03:26:41;;;;;;;7.37;4.80;;;20.80;58.40;;;;;;4988968;28;20485;-78
2022/09/25 03:29:09;;;;;;;6.63;4.70;;;20.80;58.50;;;;;;4984705;28;20831;-78
2022/09/25 03:31:36;;;;;;;5.23;4.73;;;20.80;58.60;;;;;;4986554;28;20508;-77
2022/09/25 03:34:04;;;;;;;6.87;4.93;;;20.80;58.70;;;;;;4983861;28;20465;-78
2022/09/25 03:36:35;;;;;;;6.57;4.60;;;20.80;59.50;;;;;;4979619;28;20456;-77
2022/09/25 03:39:03;;;;;;;6.37;4.60;;;20.90;58.50;;;;;;4987545;28;20481;-77
2022/09/25 03:41:32;;;;;;;6.60;4.70;;;20.80;58.60;;;;;;4974999;28;20462;-78
2022/09/25 03:44:00;;;;;;;5.03;4.53;;;20.80;58.40;;;;;;4985856;28;20440;-78
2022/09/25 03:46:28;;;;;;;5.67;4.77;;;20.70;58.50;;;;;;4975468;28;20488;-78
2022/09/25 03:48:56;;;;;;;4.97;4.40;;;20.80;58.70;;;;;;4975147;28;20969;-77
2022/09/25 03:51:24;;;;;;;10.63;4.50;;;20.80;58.60;;;;;;4975207;28;20460;-77
2022/09/25 03:53:54;;;;;;;5.00;4.50;;;20.80;58.70;;;;;;4974817;28;20450;-78
2022/09/25 03:56:22;;;;;;;6.47;5.00;;;20.70;58.80;;;;;;4986920;28;20956;-77
2022/09/25 03:58:51;;;;;;;6.40;4.80;;;20.70;58.90;;;;;;4987197;28;20675;-77
2022/09/25 04:01:20;;;;;;;5.40;4.17;;;20.80;58.80;;;;;;4984694;28;20469;-77
2022/09/25 04:03:49;;;;;;;5.10;4.20;;;20.80;58.80;;;;;;4994348;28;20859;-78
2022/09/25 04:06:19;;;;;;;5.53;4.23;;;20.80;58.80;;;;;;4994400;28;20449;-77
2022/09/25 04:08:47;;;;;;;4.80;4.30;;;20.70;58.80;;;;;;4993217;28;20507;-77
2022/09/25 04:11:16;;;;;;;4.80;4.20;;;20.70;58.70;;;;;;4993042;28;20481;-77
2022/09/25 04:13:44;;;;;;;5.40;4.17;;;20.70;58.90;;;;;;4989266;28;20506;-78
2022/09/25 04:16:12;;;;;;;7.07;3.80;;;20.70;58.80;;;;;;4991251;28;20457;-77
2022/09/25 04:18:41;;;;;;;7.13;4.83;;;20.70;58.80;;;;;;4974774;28;20497;-77
2022/09/25 04:21:10;;;;;;;5.43;4.47;;;20.70;58.70;;;;;;4974206;28;20454;-77
2022/09/25 04:23:37;;;;;;;5.33;4.30;;;20.70;59.00;;;;;;4974046;28;20474;-77
2022/09/25 04:26:06;;;;;;;5.07;4.40;;;20.70;59.00;;;;;;4990673;28;20433;-77
2022/09/25 04:28:35;;;;;;;9.20;4.43;;;20.70;58.90;;;;;;4984635;28;20457;-77
2022/09/25 04:31:03;;;;;;;6.33;4.13;;;20.70;58.80;;;;;;4981045;28;20473;-77
2022/09/25 04:33:46;;;;;;;4.50;3.87;;;20.70;59.10;;;;;;4974795;28;20549;-77
2022/09/25 04:36:14;;;;;;;3.80;3.40;;;20.70;58.90;;;;;;4974340;28;20980;-77
2022/09/25 04:38:42;;;;;;;7.13;4.43;;;20.60;58.90;;;;;;4980330;28;20461;-77
2022/09/25 04:41:10;;;;;;;5.33;3.63;;;20.60;58.90;;;;;;4992379;28;20539;-78
2022/09/25 04:43:40;;;;;;;6.77;3.87;;;20.60;59.00;;;;;;4981379;28;20482;-77
2022/09/25 04:46:08;;;;;;;5.17;3.80;;;20.60;59.10;;;;;;4990329;28;20865;-77
2022/09/25 04:48:36;;;;;;;4.67;4.03;;;20.60;59.10;;;;;;4993572;28;20427;-78
2022/09/25 04:51:04;;;;;;;5.00;4.10;;;20.60;59.00;;;;;;4993654;28;20462;-78
2022/09/25 04:53:33;;;;;;;5.50;4.30;;;20.60;59.00;;;;;;4984284;28;20438;-77
2022/09/25 04:56:02;;;;;;;4.83;3.87;;;20.60;58.90;;;;;;4989105;28;20480;-77
2022/09/25 04:58:30;;;;;;;4.50;3.80;;;20.60;59.00;;;;;;4980282;28;20821;-78
2022/09/25 05:01:02;;;;;;;3.63;3.33;;;20.50;59.10;;;;;;4991324;28;20539;-77
2022/09/25 05:03:30;;;;;;;7.40;4.13;;;20.50;59.10;;;;;;4990078;28;20488;-77
2022/09/25 05:05:58;;;;;;;3.80;3.50;;;20.50;59.30;;;;;;4994589;28;20433;-77
2022/09/25 05:08:26;;;;;;;4.30;3.90;;;20.60;59.20;;;;;;4987953;28;20457;-77
2022/09/25 05:10:56;;;;;;;4.33;3.90;;;20.60;59.20;;;;;;4991840;28;20465;-77
2022/09/25 05:13:23;;;;;;;3.63;3.33;;;20.50;59.10;;;;;;4992377;28;20464;-77
2022/09/25 05:15:51;;;;;;;5.27;3.73;;;20.50;59.10;;;;;;4993191;28;20449;-77
2022/09/25 05:18:21;;;;;;;3.87;3.47;;;20.50;59.10;;;;;;4985076;28;20457;-77
2022/09/25 05:20:49;;;;;;;3.63;3.27;;;20.50;59.30;;;;;;4986507;28;20524;-78
2022/09/25 05:23:17;;;;;;;7.70;3.20;;;20.50;59.10;;;;;;4991779;28;20469;-77
2022/09/25 05:25:50;;;;;;;4.37;3.60;;;20.50;59.10;;;;;;4993099;28;20441;-77
2022/09/25 05:28:18;;;;;;;4.10;3.70;;;20.50;59.30;;;;;;4992493;28;20457;-78
2022/09/25 05:30:46;;;;;;;5.23;3.80;;;20.50;59.30;;;;;;4977006;28;20485;-77
2022/09/25 05:33:14;;;;;;;3.93;3.40;;;20.50;59.30;;;;;;4979799;28;20450;-77
2022/09/25 05:35:43;;;;;;;5.00;3.63;;;20.50;59.10;;;;;;4983736;28;20461;-77
2022/09/25 05:38:11;;;;;;;3.83;3.53;;;20.50;59.40;;;;;;4985978;28;20525;-77
2022/09/25 05:40:38;;;;;;;5.10;3.57;;;20.50;59.30;;;;;;4991290;28;20439;-77
2022/09/25 05:43:06;;;;;;;5.80;3.50;;;20.50;59.30;;;;;;4991233;28;20480;-78
2022/09/25 05:45:34;;;;;;;4.50;3.57;;;20.50;59.20;;;;;;4979742;28;20457;-77
2022/09/25 05:48:03;;;;;;;3.97;3.23;;;20.50;59.30;;;;;;4983319;28;20432;-77
2022/09/25 05:50:31;;;;;;;3.93;3.50;;;20.50;59.20;;;;;;4983892;28;20481;-77
2022/09/25 05:53:02;;;;;;;6.50;3.30;;;20.50;59.20;;;;;;4993810;28;20440;-77
2022/09/25 05:55:30;;;;;;;4.10;3.57;;;20.50;59.20;;;;;;4995682;28;20453;-77
2022/09/25 05:58:01;;;;;;;4.00;3.40;;;20.50;59.20;;;;;;4996746;28;20449;-77
2022/09/25 06:00:31;;;;;;;4.10;3.70;;;20.50;59.40;;;;;;4995393;28;20498;-78
2022/09/25 06:02:59;;;;;;;3.93;3.00;;;20.50;59.30;;;;;;4991818;28;20819;-78
2022/09/25 06:05:27;;;;;;;3.37;3.07;;;20.50;59.10;;;;;;4997026;28;20441;-79
2022/09/25 06:07:55;;;;;;;3.47;3.10;;;20.60;59.40;;;;;;4990735;28;20945;-77
2022/09/25 06:10:26;;;;;;;4.70;3.40;;;20.60;59.10;;;;;;4986707;28;20473;-77
2022/09/25 06:12:57;;;;;;;3.33;3.10;;;20.60;59.30;;;;;;4986358;28;20462;-77
2022/09/25 06:15:26;;;;;;;3.63;3.33;;;20.60;59.00;;;;;;4994999;28;20457;-77
2022/09/25 06:17:54;;;;;;;4.03;3.37;;;20.70;59.40;;;;;;4988501;28;20469;-77
2022/09/25 06:20:23;;;;;;;3.83;3.47;;;20.70;58.80;;;;;;4984237;28;20485;-77
2022/09/25 06:22:53;;;;;;;5.93;3.70;;;20.70;58.90;;;;;;4990910;28;20480;-77
2022/09/25 06:25:22;;;;;;;3.93;3.53;;;20.70;58.90;;;;;;4987887;28;20485;-77
2022/09/25 06:27:53;;;;;;;3.57;2.80;;;20.70;58.80;;;;;;4991119;28;20445;-78
2022/09/25 06:30:22;;;;;;;3.23;2.90;;;20.70;59.30;;;;;;4994744;28;20439;-77
2022/09/25 06:32:49;;;;;;;4.00;3.00;;;20.70;59.10;;;;;;4995569;28;20531;-77
2022/09/25 06:35:17;;;;;;;6.67;3.47;;;20.70;58.80;;;;;;4990716;28;20509;-78
2022/09/25 06:37:45;;;;;;;3.17;2.90;;;20.60;58.90;;;;;;4976912;28;20484;-78
2022/09/25 06:40:13;;;;;;;3.80;3.07;;;20.70;59.10;;;;;;4988413;28;20466;-77
2022/09/25 06:42:40;;;;;;;3.70;3.40;;;20.70;59.20;;;;;;4996699;28;20441;-77
2022/09/25 06:45:10;;;;;;;3.30;3.00;;;20.70;58.90;;;;;;4989282;28;20512;-77
2022/09/25 06:47:38;;;;;;;3.33;3.03;;;20.70;59.20;;;;;;4995646;28;20437;-78
2022/09/25 06:50:07;;;;;;;3.40;3.10;;;20.70;59.10;;;;;;4994848;28;20547;-77
2022/09/25 06:52:42;;;;;;;3.67;3.10;;;20.70;59.00;;;;;;4983392;28;20454;-77
2022/09/25 06:55:09;;;;;;;3.60;2.83;;;20.70;59.10;;;;;;4992653;28;20453;-78
2022/09/25 06:57:38;;;;;;;3.43;3.07;;;20.70;59.00;;;;;;4996287;28;20449;-77
2022/09/25 07:00:07;;;;;;;3.60;3.10;;;20.70;59.10;;;;;;4979453;28;20614;-78
2022/09/25 07:05:21;;;;;;;3.47;3.17;;;20.70;59.20;;;;;;4974663;28;20490;-77
2022/09/25 07:07:49;;;;;;;3.03;2.70;;;20.80;59.40;;;;;;4976030;28;20442;-78
2022/09/25 07:10:17;;;;;;;3.00;2.70;;;20.80;58.80;;;;;;4977093;28;20478;-78
2022/09/25 07:12:46;;;;;;;2.80;2.60;;;20.80;59.00;;;;;;4995270;28;20496;-77
2022/09/25 07:15:14;;;;;;;3.23;2.83;;;20.80;58.90;;;;;;4994851;28;20472;-77
2022/09/25 07:17:44;;;;;;;3.00;2.80;;;20.90;58.90;;;;;;4975872;28;20446;-77
2022/09/25 07:20:12;;;;;;;3.07;2.60;;;20.80;58.90;;;;;;4975789;28;20444;-77
2022/09/25 07:22:40;;;;;;;3.77;3.13;;;20.90;58.80;;;;;;4990079;28;20452;-77
2022/09/25 07:25:08;;;;;;;4.80;2.93;;;20.90;58.80;;;;;;4975651;28;20540;-77
2022/09/25 07:27:36;;;;;;;4.60;3.27;;;20.90;58.90;;;;;;4989238;28;20449;-77
2022/09/25 07:30:05;;;;;;;5.80;3.47;;;20.90;59.00;;;;;;4975385;28;20469;-77
2022/09/25 07:32:33;;;;;;;3.60;3.30;;;20.90;58.60;;;;;;4990324;28;20484;-77
2022/09/25 07:35:03;;;;;;;3.77;3.30;;;20.90;58.60;;;;;;4994965;28;20452;-77
2022/09/25 07:37:31;;;;;;;4.50;3.70;;;20.90;58.70;;;;;;4980533;28;20506;-77
2022/09/25 07:39:59;;;;;;;3.97;3.63;;;21.00;59.10;;;;;;4989674;28;20473;-77
2022/09/25 07:42:27;;;;;;;5.23;3.93;;;21.00;58.90;;;;;;4985428;28;20452;-77
2022/09/25 07:44:54;;;;;;;5.20;3.90;;;21.10;58.60;;;;;;4990185;28;20473;-77
2022/09/25 07:47:22;;;;;;;5.57;4.47;;;21.00;58.50;;;;;;4992913;28;20465;-77
2022/09/25 07:49:51;;;;;;;4.77;4.00;;;21.10;58.60;;;;;;4993938;28;20479;-77
2022/09/25 07:52:20;;;;;;;6.03;4.40;;;21.10;58.50;;;;;;4983742;28;20457;-78
2022/09/25 07:54:48;;;;;;;4.47;3.90;;;21.10;58.40;;;;;;4974976;28;20428;-77
2022/09/25 07:57:19;;;;;;;4.23;3.83;;;21.20;58.90;;;;;;4975746;28;20436;-77
2022/09/25 07:59:47;;;;;;;4.17;3.50;;;21.20;58.40;;;;;;4974449;28;20478;-77
2022/09/25 08:02:15;;;;;;;5.80;4.20;;;21.30;58.60;;;;;;4977788;28;20487;-77
2022/09/25 08:04:43;;;;;;;4.63;3.77;;;21.30;58.10;;;;;;4993804;28;20516;-77
2022/09/25 08:07:11;;;;;;;4.73;3.90;;;21.30;58.30;;;;;;4993564;28;20432;-77
2022/09/25 08:09:40;;;;;;;4.83;4.03;;;21.30;58.10;;;;;;4993976;28;20453;-77
2022/09/25 08:12:11;;;;;;;4.93;3.93;;;21.40;58.90;;;;;;4986547;28;20420;-77
2022/09/25 08:14:40;;;;;;;4.40;3.43;;;21.40;58.50;;;;;;4974080;28;20438;-77
2022/09/25 08:17:08;;;;;;;3.60;3.30;;;21.40;58.30;;;;;;4973390;28;20429;-77
2022/09/25 08:19:36;;;;;;;3.43;3.13;;;21.30;58.30;;;;;;4988097;28;20456;-77
2022/09/25 08:22:04;;;;;;;4.40;3.47;;;21.40;58.70;;;;;;4993298;28;20449;-77
2022/09/25 08:24:32;;;;;;;5.07;3.80;;;21.50;58.40;;;;;;4993407;28;20476;-77
2022/09/25 08:27:02;;;;;;;3.63;3.33;;;21.50;58.40;;;;;;4986748;28;20458;-77
2022/09/25 08:29:29;;;;;;;3.57;3.10;;;21.70;58.40;;;;;;4986966;28;20461;-77
2022/09/25 08:31:58;;;;;;;3.60;3.30;;;22.00;58.70;;;;;;4990786;28;20454;-77
2022/09/25 08:34:26;;;;;;;6.37;3.27;;;22.20;58.60;;;;;;4978785;28;20428;-77
2022/09/25 08:37:08;;;;;;;3.60;3.30;;;22.50;58.30;;;;;;4983140;28;20460;-77
2022/09/25 08:39:36;;;;;;;2.80;2.33;;;22.70;58.30;;;;;;4978299;28;20452;-77
2022/09/25 08:42:06;;;;;;;3.50;3.20;;;23.00;58.50;;;;;;4974048;28;20454;-77
2022/09/25 08:44:37;;;;;;;3.07;2.80;;;23.30;58.40;;;;;;4982411;28;20443;-77
2022/09/25 08:49:59;;;;;;;3.00;2.77;;;23.70;58.20;;;;;;4973955;28;20475;-77
2022/09/25 08:52:27;;;;;;;3.13;2.87;;;24.00;58.10;;;;;;4985682;28;20437;-78
2022/09/25 08:54:54;;;;;;;2.80;2.60;;;24.20;58.20;;;;;;4989396;28;20429;-78
2022/09/25 08:57:29;;;;;;;3.20;2.83;;;24.40;58.00;;;;;;4993891;28;20499;-78
2022/09/25 08:59:59;;;;;;;2.50;2.30;;;24.70;57.70;;;;;;4994565;28;20423;-78
2022/09/25 09:02:38;;;;;;;2.80;2.60;;;24.90;57.70;;;;;;4994708;28;20441;-78
2022/09/25 09:05:10;;;;;;;3.27;2.97;;;25.20;57.40;;;;;;4982647;28;20448;-76
2022/09/25 09:07:40;;;;;;;2.47;2.37;;;25.40;57.10;;;;;;4974307;28;20467;-78
2022/09/25 09:10:15;;;;;;;2.67;2.50;;;25.70;56.70;;;;;;4985680;28;20502;-78
2022/09/25 09:12:45;;;;;;;2.43;2.20;;;25.80;56.40;;;;;;4993476;28;20966;-77
2022/09/25 09:15:21;;;;;;;2.63;2.40;;;26.00;56.40;;;;;;4993087;28;20445;-77
2022/09/25 09:17:49;;;;;;;2.93;2.40;;;26.20;56.10;;;;;;4993632;28;20814;-77
2022/09/25 09:20:19;;;;;;;2.23;2.03;;;26.50;55.80;;;;;;4980277;28;20473;-78
2022/09/25 09:22:49;;;;;;;2.57;2.47;;;26.70;55.30;;;;;;4994640;28;20457;-78
2022/09/25 09:25:25;;;;;;;2.20;2.10;;;26.80;55.10;;;;;;4995236;28;20973;-78
2022/09/25 09:28:04;;;;;;;3.10;2.23;;;26.90;54.60;;;;;;4985793;28;20458;-80
2022/09/25 09:30:34;;;;;;;2.57;2.37;;;27.10;54.80;;;;;;4984863;28;20455;-79
2022/09/25 09:33:13;;;;;;;2.60;2.50;;;27.20;54.40;;;;;;5006888;28;20431;-79
2022/09/25 09:35:46;;;;;;;2.40;1.80;;;27.50;54.40;;;;;;5019734;28;20420;-79
2022/09/25 09:38:20;;;;;;;2.00;1.90;;;27.80;54.20;;;;;;5020663;28;20413;-78
2022/09/25 09:41:01;;;;;;;2.47;2.33;;;28.00;53.40;;;;;;5021064;28;20426;-80
2022/09/25 09:43:38;;;;;;;2.20;2.10;;;28.00;52.90;;;;;;5021521;28;20420;-81
2022/09/25 09:46:14;;;;;;;2.20;2.00;;;28.00;52.90;;;;;;5000901;28;20468;-84
2022/09/25 09:48:45;;;;;;;4.70;1.70;;;27.90;52.80;;;;;;5000403;28;20407;-82
2022/09/25 09:51:16;;;;;;;3.73;1.50;;;27.50;52.00;;;;;;4999987;28;20446;-82
2022/09/25 09:53:46;;;;;;;4.83;1.40;;;27.30;51.90;;;;;;4998365;28;20426;-83
2022/09/25 09:56:17;;;;;;;3.70;1.40;;;27.10;51.90;;;;;;4995711;28;20447;-82
2022/09/25 09:58:49;;;;;;;5.90;1.10;;;27.00;52.40;;;;;;4991637;28;20455;-82
2022/09/25 10:01:18;;;;;;;5.10;1.50;;;26.90;52.50;;;;;;4996114;28;20492;-82
2022/09/25 10:04:08;;;;;;;4.23;1.27;;;26.90;52.80;;;;;;4999095;28;20452;-82
2022/09/25 10:06:38;;;;;;;3.33;1.30;;;27.10;53.20;;;;;;4999270;28;20473;-83
2022/09/25 10:09:07;;;;;;;16.23;1.70;;;27.30;52.80;;;;;;5001045;28;20455;-81
2022/09/25 10:11:36;;;;;;;12.83;1.77;;;27.20;52.30;;;;;;4998799;28;20560;-81
2022/09/25 10:14:05;;;;;;;5.47;1.30;;;27.10;52.40;;;;;;4989741;28;20460;-81
2022/09/25 10:16:34;;;;;;;8.57;1.40;;;27.00;52.30;;;;;;5009083;28;20467;-82
2022/09/25 10:19:05;;;;;;;3.17;1.67;;;27.00;52.40;;;;;;4999037;28;20415;-81
2022/09/25 10:21:37;;;;;;;4.77;1.37;;;26.90;52.40;;;;;;4979543;28;20437;-81
2022/09/25 10:24:06;;;;;;;6.93;1.73;;;26.80;52.60;;;;;;4979764;28;20424;-82
2022/09/25 10:26:35;;;;;;;3.07;1.13;;;26.70;52.60;;;;;;4979057;28;20449;-82
2022/09/25 10:29:22;;;;;;;3.63;1.30;;;26.70;52.70;;;;;;4986782;28;20420;-82
2022/09/25 10:31:57;;;;;;;3.97;1.33;;;26.60;52.90;;;;;;4998413;28;20439;-82
2022/09/25 10:34:27;;;;;;;5.87;1.30;;;26.60;52.80;;;;;;4999387;28;20435;-82
2022/09/25 10:36:55;;;;;;;2.90;1.43;;;26.50;52.90;;;;;;4998060;28;20412;-81
2022/09/25 10:39:27;;;;;;;4.97;1.33;;;26.50;53.00;;;;;;4996362;28;20424;-82
2022/09/25 10:42:37;;;;;;;3.90;1.43;;;26.50;53.00;;;;;;4988690;28;20433;-80
2022/09/25 10:45:30;;;;;;;3.57;1.37;;;26.50;52.90;;;;;;4979894;28;20444;-80
2022/09/25 10:50:44;;;;;;;2.90;1.30;;;26.50;53.10;;;;;;4992267;28;20455;-80
2022/09/25 10:53:27;;;;;;;4.00;1.57;;;26.50;52.60;;;;;;4987661;28;20424;-81
2022/09/25 10:56:00;;;;;;;1.57;1.30;;;26.60;52.90;;;;;;4997407;28;20400;-81
2022/09/25 10:58:30;;;;;;;17.43;2.77;;;26.70;52.50;;;;;;4993876;28;20436;-81
2022/09/25 11:01:00;;;;;;;15.40;4.63;;;26.70;53.10;;;;;;4987526;28;20473;-79
2022/09/25 11:03:31;;;;;;;22.73;7.60;;;26.90;53.40;;;;;;4990294;28;20521;-82
2022/09/25 11:06:00;;;;;;;32.50;8.83;;;27.10;53.20;;;;;;5005192;28;20456;-79
2022/09/25 11:08:30;;;;;;;26.97;9.27;;;27.00;53.30;;;;;;5001917;28;20453;-80
2022/09/25 11:10:59;;;;;;;32.23;12.10;;;27.00;53.30;;;;;;4999969;28;20469;-81
2022/09/25 11:13:29;;;;;;;37.87;11.93;;;26.90;53.70;;;;;;4997779;28;20533;-80
2022/09/25 11:15:58;;;;;;;28.07;13.47;;;26.80;54.00;;;;;;4983184;28;20461;-82
2022/09/25 11:18:46;;;;;;;34.03;13.90;;;26.80;54.20;;;;;;4991480;28;20442;-80
2022/09/25 11:21:22;;;;;;;29.97;11.87;;;26.80;54.60;;;;;;5000959;28;20475;-80
2022/09/25 11:24:00;;;;;;;33.57;11.77;;;26.70;54.30;;;;;;4999637;28;20515;-82
2022/09/25 11:26:30;;;;;;;30.30;13.03;;;26.60;54.60;;;;;;4980968;28;20515;-80
2022/09/25 11:29:04;;;;;;;23.97;11.50;;;26.60;55.00;;;;;;4979040;28;20442;-80
2022/09/25 11:31:36;;;;;;;23.23;8.53;;;26.50;54.80;;;;;;4985594;28;20452;-79
2022/09/25 11:34:11;;;;;;;26.60;8.20;;;26.30;53.30;;;;;;4985326;28;20456;-80
2022/09/25 11:36:41;;;;;;;21.63;8.40;;;26.20;53.10;;;;;;5000170;28;20895;-81
2022/09/25 11:41:59;;;;;;;22.87;7.67;;;26.20;52.20;;;;;;4996115;28;20424;-79
2022/09/25 11:44:30;;;;;;;16.40;7.83;;;26.40;52.00;;;;;;4997442;28;20420;-80
2022/09/25 11:47:01;;;;;;;13.63;5.90;;;26.40;51.20;;;;;;4995728;28;20568;-79
2022/09/25 11:49:33;;;;;;;17.20;6.60;;;26.30;50.90;;;;;;4996662;28;20432;-79
2022/09/25 11:52:21;;;;;;;15.93;5.60;;;26.20;51.20;;;;;;4994973;28;20476;-81
2022/09/25 11:55:15;;;;;;;12.33;4.93;;;26.20;50.60;;;;;;4995121;28;20403;-79
2022/09/25 11:57:49;;;;;;;9.57;4.47;;;26.10;50.40;;;;;;4976815;28;20409;-79
2022/09/25 12:00:19;;;;;;;13.77;4.83;;;26.10;50.60;;;;;;4980801;28;20473;-81
2022/09/25 12:02:59;;;;;;;9.97;4.60;;;26.00;50.30;;;;;;5001047;28;20425;-81
2022/09/25 12:05:40;;;;;;;7.37;3.57;;;25.90;50.60;;;;;;4994526;28;20424;-80
2022/09/25 12:08:17;;;;;;;14.63;4.90;;;25.90;50.40;;;;;;4976708;28;20470;-79
2022/09/25 12:10:52;;;;;;;16.20;4.50;;;26.00;51.60;;;;;;4991178;28;20480;-78
2022/09/25 12:13:25;;;;;;;13.53;4.70;;;26.10;50.90;;;;;;5002423;28;20439;-84
2022/09/25 12:16:00;;;;;;;11.47;4.10;;;26.10;50.50;;;;;;4996370;28;20445;-77
2022/09/25 12:18:39;;;;;;;7.83;2.67;;;26.20;50.10;;;;;;4986952;28;20451;-84
2022/09/25 12:21:10;;;;;;;6.57;3.30;;;25.60;47.80;;;;;;4996407;28;20438;-80
2022/09/25 12:23:42;;;;;;;6.83;4.77;;;25.50;47.80;;;;;;4995883;28;20431;-78
2022/09/25 12:26:16;;;;;;;18.63;4.53;;;25.70;45.80;;;;;;4989065;28;20465;-81
2022/09/25 12:28:57;;;;;;;4.50;2.67;;;28.10;46.20;;;;;;5003972;28;20501;-83
2022/09/25 12:31:31;;;;;;;9.23;4.17;;;30.90;38.90;;;;;;5004159;28;20476;-83
2022/09/25 12:34:05;;;;;;;3.87;1.93;;;32.90;35.20;;;;;;5002435;28;20520;-78
2022/09/25 12:36:37;;;;;;;6.10;4.40;;;33.60;32.70;;;;;;4994800;28;20469;-81
2022/09/25 12:39:16;;;;;;;13.83;7.23;;;31.90;34.00;;;;;;5001890;28;20476;-83
2022/09/25 12:41:47;;;;;;;23.77;9.10;;;30.40;35.70;;;;;;4997555;28;20464;-79
2022/09/25 12:44:17;;;;;;;21.53;15.40;;;29.50;37.50;;;;;;4995675;28;20448;-82
2022/09/25 12:46:53;;;;;;;6.97;4.27;;;28.30;36.70;;;;;;5000882;28;20500;-82
2022/09/25 12:49:27;;;;;;;11.20;6.20;;;27.30;39.20;;;;;;5003005;28;20445;-79
2022/09/25 12:51:59;;;;;;;8.03;3.03;;;26.50;41.50;;;;;;4987891;28;20453;-79
2022/09/25 12:54:31;;;;;;;6.80;1.83;;;26.20;43.20;;;;;;4976793;28;20493;-79
2022/09/25 12:57:01;;;;;;;6.03;1.87;;;25.70;43.80;;;;;;4974247;28;20481;-79
2022/09/25 12:59:32;;;;;;;5.53;1.70;;;25.90;44.60;;;;;;4985485;28;20449;-78
2022/09/25 13:02:03;;;;;;;9.93;1.80;;;26.10;44.50;;;;;;4992687;28;20428;-78
2022/09/25 13:04:52;;;;;;;7.87;1.90;;;26.30;44.80;;;;;;4993237;28;20434;-78
2022/09/25 13:07:24;;;;;;;6.30;1.70;;;26.60;45.10;;;;;;4993777;28;20412;-78
2022/09/25 13:09:53;;;;;;;5.03;1.53;;;28.30;43.80;;;;;;4992572;28;20832;-78
2022/09/25 13:12:26;;;;;;;3.63;1.50;;;30.70;40.60;;;;;;4983382;28;20472;-79
2022/09/25 13:14:56;;;;;;;2.10;1.30;;;32.50;37.20;;;;;;4984792;28;20440;-77
2022/09/25 13:17:23;;;;;;;3.63;1.47;;;33.80;35.60;;;;;;4991541;28;20495;-79